Bei Facebook empfehlenBei Twitter postenGoogle plusPinterest

Das Wetter im Erzgebirge am 09.12.2016

Wetter und Klima am 09.12.2016 Holzhau im Erzgebirge (630m ü.NN)
Letzte gemessene Temperatur und Uhrzeit der Messung23:45:00 Uhr4.50 °C
Temperatur (Maximum / Höchstwert) und Uhrzeit der Messung13:45:00 Uhr4.90 °C
Temperatur (Minimum / Tiefstwert) und Uhrzeit der Messung02:45:00-2.10 °C
Errechneter Absolutwert der Temperaturschwankungen zwischen Tmin und Tmax des Tages7.00 K
Errechnete Tagesmitteltemperatur3.41146 °C
Gesamt - Niederschlag des Tages (in flüssiger Form)3.11 Liter / m²
Luftdruck (Maximum / Höchstwert) und Zeitpunkt der Messung20:15:00 Uhr1023.40 hPa
Luftdruck (Minimum / Tiefstwert) und Zeitpunkt der Messung07:30:00 Uhr1021.60 hPa
Errechneter Absolutwert der Luftdruckschwankungen des Tages1.80 hPa
Höchste gemessene Windgeschwindigkeit und Uhrzeit der Messung23:45:00 Uhr0.00 km/h
Errechnete Windhäufigkeit in Relation zu den Messwerten des Tages0.00000 %
Niedrigste Windkühle (Windchill) und Zeitpunkt der Messung02:45:00 Uhr-2.10 °C
Taupunkt (Maximum / Höchstwert) und Uhrzeit der Messung13:45:00 Uhr4.30 °C
Taupunkt (Minimum / Tiefstwert) und Uhrzeit der Messung02:45:00-5.80 °C
Anzahl der automatisch eingelesenen Messwerte 96

Detaillierte Wetter- und Klima- Messwerte für den 09.12.2016 in Holzhau im Erzgebirge (630m ü.NN)
ZeitTemperaturLuftdruckRel. LuftfeuchteWindWindrichtungWindchillTaupunktNiederschlag l/m²
23:45:004.50 °C1022.20 hPa97.00 %4.10 °C3.11
23:30:003.80 °C1022.30 hPa97.00 %3.40 °C3.11
23:15:003.50 °C1022.40 hPa97.00 %3.10 °C3.11
23:00:003.50 °C1022.70 hPa97.00 %3.10 °C3.11
22:45:003.60 °C1022.50 hPa97.00 %3.20 °C3.11
22:30:003.80 °C1022.60 hPa97.00 %3.40 °C3.11
22:15:004.10 °C1022.50 hPa97.00 %3.70 °C3.11
22:00:004.40 °C1023.00 hPa97.00 %4.00 °C3.11
21:45:004.30 °C1023.00 hPa97.00 %3.90 °C3.11
21:30:004.20 °C1023.20 hPa97.00 %3.80 °C3.11
21:15:004.20 °C1023.20 hPa97.00 %3.80 °C3.11
21:00:004.20 °C1023.10 hPa97.00 %3.80 °C3.11
20:45:004.20 °C1022.90 hPa97.00 %3.80 °C3.11
20:30:004.10 °C1023.20 hPa97.00 %3.70 °C3.11
20:15:004.10 °C1023.40 hPa97.00 %3.70 °C3.11
20:00:004.00 °C1023.40 hPa97.00 %3.60 °C3.11
19:45:003.90 °C1023.40 hPa97.00 %3.50 °C3.11
19:30:004.10 °C1023.40 hPa97.00 %3.70 °C3.11
19:15:004.10 °C1023.20 hPa97.00 %3.70 °C3.11
19:00:004.10 °C1023.20 hPa97.00 %3.70 °C3.11
18:45:004.20 °C1023.40 hPa97.00 %3.80 °C3.11
18:30:004.30 °C1023.40 hPa97.00 %3.90 °C3.11
18:15:004.40 °C1023.20 hPa97.00 %4.00 °C3.11
18:00:004.40 °C1023.30 hPa97.00 %4.00 °C3.11
17:45:004.40 °C1023.30 hPa96.00 %3.80 °C3.11
17:30:004.40 °C1023.30 hPa96.00 %3.80 °C3.11
17:15:004.40 °C1023.10 hPa96.00 %3.80 °C3.11
17:00:004.50 °C1023.30 hPa96.00 %3.90 °C3.11
16:45:004.50 °C1023.20 hPa96.00 %3.90 °C3.11
16:30:004.50 °C1023.20 hPa96.00 %3.90 °C3.11
16:15:004.60 °C1023.00 hPa96.00 %4.00 °C3.11
16:00:004.60 °C1023.10 hPa96.00 %4.00 °C3.11
15:45:004.70 °C1023.10 hPa96.00 %4.10 °C3.11
15:30:004.70 °C1023.10 hPa96.00 %4.10 °C2.59
15:15:004.80 °C1022.80 hPa96.00 %4.20 °C2.59
15:00:004.70 °C1022.80 hPa96.00 %4.10 °C2.59
14:45:004.80 °C1022.80 hPa96.00 %4.20 °C2.59
14:30:004.80 °C1022.80 hPa96.00 %4.20 °C2.59
14:15:004.80 °C1022.60 hPa96.00 %4.20 °C2.59
14:00:004.80 °C1022.50 hPa96.00 %4.20 °C2.59
13:45:004.90 °C1022.40 hPa96.00 %4.30 °C2.59
13:30:004.90 °C1022.40 hPa96.00 %4.30 °C2.59
13:15:004.90 °C1022.50 hPa96.00 %4.30 °C2.59
13:00:004.90 °C1022.70 hPa96.00 %4.30 °C2.59
12:45:004.80 °C1022.60 hPa95.00 %4.10 °C2.59
12:30:004.70 °C1022.40 hPa95.00 %4.00 °C2.59
12:15:004.70 °C1022.60 hPa95.00 %4.00 °C2.59
12:00:004.60 °C1022.60 hPa95.00 %3.90 °C2.59
11:45:004.60 °C1022.60 hPa95.00 %3.90 °C2.07
11:30:004.60 °C1022.50 hPa95.00 %3.90 °C2.07
11:15:004.60 °C1022.40 hPa94.00 %3.70 °C2.07
11:00:004.60 °C1022.50 hPa94.00 %3.70 °C2.07
10:45:004.60 °C1022.60 hPa94.00 %3.70 °C2.07
10:30:004.60 °C1022.50 hPa94.00 %3.70 °C2.07
10:15:004.60 °C1022.50 hPa94.00 %3.70 °C2.07
10:00:004.50 °C1022.50 hPa93.00 %3.50 °C1.55
09:45:004.50 °C1022.40 hPa93.00 %3.50 °C1.55
09:30:004.40 °C1022.10 hPa92.00 %3.20 °C1.55
09:15:004.20 °C1022.00 hPa92.00 %3.00 °C1.55
09:00:004.10 °C1022.00 hPa92.00 %2.90 °C1.55
08:45:003.90 °C1021.90 hPa91.00 %2.60 °C1.55
08:30:003.90 °C1021.90 hPa91.00 %2.60 °C1.55
08:15:003.80 °C1022.00 hPa90.00 %2.30 °C1.55
08:00:003.80 °C1021.70 hPa90.00 %2.30 °C1.04
07:45:003.80 °C1021.70 hPa89.00 %2.20 °C1.04
07:30:003.80 °C1021.60 hPa89.00 %2.20 °C1.04
07:15:003.60 °C1022.00 hPa88.00 %1.80 °C1.04
07:00:003.40 °C1022.00 hPa88.00 %1.60 °C1.04
06:45:002.90 °C1021.90 hPa87.00 %1.00 °C0.52
06:30:002.70 °C1022.10 hPa86.00 %0.60 °C0.52
06:15:002.40 °C1022.10 hPa85.00 %0.10 °C0.52
06:00:002.40 °C1022.00 hPa84.00 %0.00 °C0.52
05:45:002.50 °C1022.10 hPa83.00 %-0.10 °C0.52
05:30:002.60 °C1022.30 hPa81.00 %-0.30 °C0.52
05:15:002.90 °C1022.30 hPa80.00 %-0.20 °C 
05:00:002.80 °C1022.40 hPa80.00 %-0.30 °C 
04:45:002.40 °C1022.30 hPa78.00 %-1.00 °C 
04:30:002.40 °C1022.40 hPa78.00 %-1.00 °C 
04:15:002.20 °C1022.40 hPa79.00 %-1.10 °C 
04:00:001.80 °C1022.40 hPa80.00 %-1.30 °C 
03:45:000.50 °C1022.60 hPa81.00 %-2.40 °C 
03:30:00-0.90 °C1022.30 hPa80.00 %-4.30 °C 
03:15:00-1.40 °C1022.30 hPa79.00 %-4.90 °C 
03:00:00-1.60 °C1022.30 hPa79.00 %-5.10 °C 
02:45:00-2.10 °C1022.60 hPa78.00 %-5.80 °C 
02:30:00-1.80 °C1022.90 hPa77.00 %-5.70 °C 
02:15:00-1.40 °C1022.60 hPa76.00 %-5.50 °C 
02:00:00-0.80 °C1022.20 hPa76.00 %-4.90 °C 
01:45:00-0.70 °C1022.10 hPa75.00 %-5.00 °C 
01:30:00-0.10 °C1022.20 hPa72.00 %-5.10 °C 
01:15:000.70 °C1022.10 hPa71.00 %-3.90 °C 
01:00:001.60 °C1022.30 hPa70.00 %-3.30 °C 
00:45:002.20 °C1022.00 hPa70.00 %-2.70 °C 
00:30:002.90 °C1022.10 hPa70.00 %-2.00 °C 
00:15:003.10 °C1022.40 hPa70.00 %-1.80 °C 
00:00:003.00 °C1022.50 hPa71.00 %-1.70 °C 

Permanenter Link zu dieser Seite: Wetter im Erzgebirge am 09.12.2016
Performance-Info: Die Erstellung der Seite / Statistik(en) / Tabelle(n) erforderte 5 Datenbankserver-Abfrage(n) und dauerte 99 Millisekunden. (Dieser Messwert ist von der Gesamt-Auslastung des Servers abhängig.)
Erzgebirge - Wetter | Erzgebirge - Wetter (Mobilgeräte) | Komplette Klimadatenbank